createdAt,value
2019-02-04T00:01:22.580Z,10.93
2019-02-04T00:07:15.236Z,13.60
2019-02-04T00:10:06.220Z,11.10
2019-02-04T00:12:48.932Z,11.30
2019-02-04T00:19:07.969Z,12.00
2019-02-04T00:21:58.340Z,10.40
2019-02-04T00:25:02.963Z,15.57
2019-02-04T00:27:53.318Z,12.10
2019-02-04T00:30:36.079Z,10.60
2019-02-04T00:33:26.418Z,12.73
2019-02-04T00:36:30.646Z,12.17
2019-02-04T00:39:21.017Z,11.53
2019-02-04T00:42:04.319Z,11.97
2019-02-04T00:44:54.697Z,11.80
2019-02-04T00:47:59.606Z,13.17
2019-02-04T00:53:58.429Z,12.93
2019-02-04T00:56:48.792Z,12.30
2019-02-04T00:59:31.416Z,11.43
2019-02-04T01:02:21.823Z,13.70
2019-02-04T01:05:05.938Z,17.17
2019-02-04T01:11:24.805Z,14.70
2019-02-04T01:14:07.864Z,16.90
2019-02-04T01:17:03.379Z,17.83
2019-02-04T01:20:02.398Z,18.13
2019-02-04T01:22:52.866Z,17.50
2019-02-04T01:25:35.604Z,18.17
2019-02-04T01:28:26.003Z,13.93
2019-02-04T01:31:30.330Z,18.10
2019-02-04T01:34:20.711Z,22.20
2019-02-04T01:37:03.647Z,19.23
2019-02-04T01:39:54.005Z,21.97
2019-02-04T01:42:37.436Z,20.27
2019-02-04T01:45:27.802Z,23.70
2019-02-04T01:48:10.379Z,26.77
2019-02-04T01:51:00.745Z,22.03
2019-02-04T01:53:43.992Z,18.17
2019-02-04T01:56:34.316Z,21.40
2019-02-04T01:59:17.023Z,23.60
2019-02-04T02:02:07.770Z,20.53
2019-02-04T02:04:50.713Z,22.83
2019-02-04T02:07:41.069Z,20.80
2019-02-04T02:10:24.031Z,26.83
2019-02-04T02:13:14.440Z,23.40
2019-02-04T02:16:04.819Z,22.97
2019-02-04T02:18:48.290Z,19.60
2019-02-04T02:21:38.675Z,21.40
2019-02-04T02:24:21.701Z,22.60
2019-02-04T02:27:12.189Z,24.57
2019-02-04T02:29:55.580Z,21.77
2019-02-04T02:32:45.947Z,22.57
2019-02-04T02:35:28.513Z,22.63
2019-02-04T02:38:18.895Z,20.67
2019-02-04T02:41:01.449Z,18.23
2019-02-04T02:43:51.837Z,22.13
2019-02-04T02:46:34.984Z,20.53
2019-02-04T02:49:25.361Z,25.43
2019-02-04T02:52:09.108Z,23.13
2019-02-04T02:54:59.452Z,20.60
2019-02-04T02:57:42.510Z,17.50
2019-02-04T03:00:33.246Z,20.33
2019-02-04T03:03:16.380Z,19.87
2019-02-04T03:06:06.739Z,22.10
2019-02-04T03:08:49.471Z,24.10
2019-02-04T03:11:39.810Z,25.50
2019-02-04T03:14:23.089Z,24.70
2019-02-04T03:17:13.451Z,24.07
2019-02-04T03:20:18.286Z,27.87
2019-02-04T03:23:08.629Z,24.73
2019-02-04T03:25:51.415Z,24.57
2019-02-04T03:28:41.794Z,26.53
2019-02-04T03:31:25.147Z,28.33
2019-02-04T03:34:15.487Z,27.43
2019-02-04T03:36:59.060Z,27.30
2019-02-04T03:39:49.398Z,24.60
2019-02-04T03:42:32.363Z,23.47
2019-02-04T03:45:22.849Z,25.10
2019-02-04T03:48:25.683Z,23.50
2019-02-04T03:51:16.205Z,27.57
2019-02-04T03:53:59.311Z,25.50
2019-02-04T03:56:49.658Z,25.50
2019-02-04T03:59:32.553Z,23.17
2019-02-04T04:02:23.229Z,25.90
2019-02-04T04:05:13.795Z,23.67
2019-02-04T04:08:18.903Z,22.83
2019-02-04T04:14:11.442Z,27.63
2019-02-04T04:16:54.792Z,22.57
2019-02-04T04:19:45.169Z,25.73
2019-02-04T04:22:28.516Z,21.07
2019-02-04T04:28:47.557Z,22.13
2019-02-04T04:31:37.893Z,22.07
2019-02-04T04:34:42.465Z,22.70
2019-02-04T04:37:32.830Z,19.60
2019-02-04T04:40:16.114Z,21.30
2019-02-04T04:43:06.523Z,21.83
2019-02-04T04:45:49.997Z,23.97
2019-02-04T04:48:40.353Z,23.33
2019-02-04T04:51:23.553Z,20.23
2019-02-04T04:54:13.915Z,22.63
2019-02-04T04:56:57.035Z,22.00
2019-02-04T04:59:47.443Z,20.47
2019-02-04T05:02:30.115Z,20.33
2019-02-04T05:05:20.768Z,19.10
2019-02-04T05:08:03.956Z,19.13
2019-02-04T05:10:54.296Z,20.40
2019-02-04T05:13:37.440Z,21.27
2019-02-04T05:16:27.846Z,18.07
2019-02-04T05:19:10.989Z,18.00
2019-02-04T05:22:01.339Z,19.37
2019-02-04T05:25:06.320Z,20.53
2019-02-04T05:27:56.688Z,21.37
2019-02-04T05:30:40.148Z,19.20
2019-02-04T05:33:30.513Z,18.83
2019-02-04T05:36:13.541Z,20.70
2019-02-04T05:42:34.681Z,19.27
2019-02-04T05:45:25.119Z,17.77
2019-02-04T05:48:08.570Z,16.93
2019-02-04T05:50:58.931Z,17.93
2019-02-04T05:53:41.761Z,18.93
2019-02-04T05:56:32.127Z,19.33
2019-02-04T05:59:15.492Z,20.20
2019-02-04T06:02:09.514Z,18.17
2019-02-04T06:05:13.587Z,16.57
2019-02-04T06:08:04.896Z,21.50
2019-02-04T06:10:48.046Z,17.07
2019-02-04T06:13:38.419Z,17.10
2019-02-04T06:16:21.012Z,18.40
2019-02-04T06:19:04.063Z,17.37
2019-02-04T06:21:54.444Z,15.60
2019-02-04T06:24:37.012Z,18.40
2019-02-04T06:27:27.362Z,16.13
2019-02-04T06:30:10.710Z,15.33
2019-02-04T06:33:01.102Z,14.73
2019-02-04T06:36:06.117Z,16.60
2019-02-04T06:38:56.490Z,14.87
2019-02-04T06:41:39.566Z,15.70
2019-02-04T06:44:29.885Z,17.70
2019-02-04T06:47:34.941Z,14.50
2019-02-04T06:50:25.307Z,14.27
2019-02-04T06:53:08.314Z,15.67
2019-02-04T06:55:58.655Z,14.00
2019-02-04T06:59:03.182Z,12.70
2019-02-04T07:01:53.575Z,15.53
2019-02-04T07:04:36.451Z,15.83
2019-02-04T07:07:26.883Z,13.40
2019-02-04T07:10:31.733Z,11.47
2019-02-04T07:13:22.105Z,11.73
2019-02-04T07:16:05.248Z,11.07
2019-02-04T07:18:55.658Z,12.63
2019-02-04T07:22:00.707Z,10.53
2019-02-04T07:24:43.895Z,11.87
2019-02-04T07:27:34.265Z,11.57
2019-02-04T07:30:18.542Z,10.63
2019-02-04T07:33:08.893Z,10.43
2019-02-04T07:35:51.421Z,10.67
2019-02-04T07:38:41.771Z,11.00
2019-02-04T07:41:25.110Z,10.53
2019-02-04T07:44:15.465Z,9.87
2019-02-04T07:47:19.878Z,8.97
2019-02-04T07:50:10.266Z,10.30
2019-02-04T07:52:53.245Z,9.43
2019-02-04T07:55:43.622Z,11.63
2019-02-04T07:58:26.377Z,10.93
2019-02-04T08:01:16.735Z,9.60
2019-02-04T08:03:59.628Z,10.07
2019-02-04T08:06:49.966Z,8.47
2019-02-04T08:09:33.136Z,8.47
2019-02-04T08:12:23.482Z,8.40
2019-02-04T08:15:08.155Z,10.03
2019-02-04T08:17:58.896Z,9.03
2019-02-04T08:20:42.330Z,10.77
2019-02-04T08:23:25.134Z,8.93
2019-02-04T08:26:15.480Z,8.70
2019-02-04T08:28:58.295Z,8.20
2019-02-04T08:31:48.658Z,8.33
2019-02-04T08:34:31.263Z,10.17
2019-02-04T08:37:21.654Z,8.97
2019-02-04T08:40:05.014Z,7.23
2019-02-04T08:42:55.370Z,7.53
2019-02-04T08:45:37.957Z,7.80
2019-02-04T08:48:28.318Z,7.63
2019-02-04T08:51:33.159Z,6.50
2019-02-04T08:54:23.513Z,7.80
2019-02-04T08:57:06.075Z,7.37
2019-02-04T08:59:56.595Z,7.73
2019-02-04T09:02:39.181Z,7.80
2019-02-04T09:05:22.433Z,7.63
2019-02-04T09:08:12.773Z,7.00
2019-02-04T09:10:55.356Z,7.30
2019-02-04T09:13:45.756Z,8.93
2019-02-04T09:16:28.810Z,6.73
2019-02-04T09:19:19.156Z,6.77
2019-02-04T09:22:02.640Z,10.27
2019-02-04T09:24:52.995Z,9.73
2019-02-04T09:27:36.080Z,8.10
2019-02-04T09:30:26.859Z,7.80
2019-02-04T09:33:29.737Z,8.67
2019-02-04T09:36:20.100Z,7.27
2019-02-04T09:39:05.015Z,7.63
2019-02-04T09:41:55.370Z,7.87
2019-02-04T09:44:38.195Z,6.87
2019-02-04T09:47:28.553Z,7.73
2019-02-04T09:50:21.408Z,8.23
2019-02-04T09:56:34.622Z,6.80
2019-02-04T09:59:24.955Z,7.07
2019-02-04T10:02:08.058Z,7.37
2019-02-04T10:04:51.379Z,7.43
2019-02-04T10:07:41.717Z,9.67
2019-02-04T10:10:32.090Z,6.37
2019-02-04T10:13:14.875Z,7.13
2019-02-04T10:15:57.781Z,6.93
2019-02-04T10:18:48.104Z,7.77
2019-02-04T10:21:30.965Z,6.23
2019-02-04T10:24:21.335Z,9.00
2019-02-04T10:27:04.666Z,6.87
2019-02-04T10:29:55.666Z,8.47
2019-02-04T10:32:38.467Z,7.70
2019-02-04T10:35:28.842Z,8.10
2019-02-04T10:38:11.516Z,7.33
2019-02-04T10:41:01.948Z,8.43
2019-02-04T10:44:07.296Z,7.47
2019-02-04T10:46:57.674Z,8.27
2019-02-04T10:49:40.986Z,7.00
2019-02-04T10:52:31.363Z,8.50
2019-02-04T10:55:35.588Z,8.80
2019-02-04T10:58:25.990Z,6.73
2019-02-04T11:01:09.110Z,7.17
2019-02-04T11:03:59.425Z,10.17
2019-02-04T11:06:42.265Z,6.70
2019-02-04T11:09:32.629Z,6.93
2019-02-04T11:12:15.649Z,5.60
2019-02-04T11:15:46.073Z,6.73
2019-02-04T11:18:28.962Z,5.63
2019-02-04T11:21:19.316Z,8.87
2019-02-04T11:24:02.827Z,7.43
2019-02-04T11:26:53.208Z,7.03
2019-02-04T11:29:35.991Z,6.87
2019-02-04T11:32:26.379Z,6.13
2019-02-04T11:35:09.794Z,4.93
2019-02-04T11:37:53.172Z,5.53
2019-02-04T11:40:45.781Z,7.13
2019-02-04T11:43:48.396Z,5.13
2019-02-04T11:46:38.882Z,5.97
2019-02-04T11:49:21.424Z,6.20
2019-02-04T11:52:11.769Z,5.30
2019-02-04T11:55:15.966Z,6.20
2019-02-04T11:58:07.946Z,4.03
2019-02-04T12:01:11.708Z,4.67
2019-02-04T12:04:02.029Z,5.40
2019-02-04T12:06:45.316Z,6.10
2019-02-04T12:09:35.657Z,7.17
2019-02-04T12:12:19.041Z,6.47
2019-02-04T12:15:12.340Z,3.97
2019-02-04T12:17:55.792Z,7.00
2019-02-04T12:20:46.147Z,4.43
2019-02-04T12:23:29.570Z,5.00
2019-02-04T12:26:19.918Z,3.73
2019-02-04T12:29:23.240Z,3.33
2019-02-04T12:32:13.626Z,5.27
2019-02-04T12:34:56.483Z,5.97
2019-02-04T12:41:15.021Z,5.83
2019-02-04T12:50:49.185Z,4.77
2019-02-04T12:53:39.571Z,6.20
2019-02-04T12:56:22.920Z,5.07
2019-02-04T12:59:13.300Z,5.63
2019-02-04T13:01:56.279Z,4.87
2019-02-04T13:04:46.640Z,5.87
2019-02-04T13:07:29.413Z,4.70
2019-02-04T13:13:56.083Z,3.97
2019-02-04T13:16:38.923Z,4.53
2019-02-04T13:19:29.336Z,4.93
2019-02-04T13:22:12.648Z,8.03
2019-02-04T13:25:02.987Z,4.47
2019-02-04T13:28:12.420Z,5.40
2019-02-04T13:31:01.519Z,4.37
2019-02-04T13:33:44.155Z,6.83
2019-02-04T13:36:34.551Z,5.20
2019-02-04T13:39:38.739Z,5.83
2019-02-04T13:42:29.084Z,6.60
2019-02-04T13:45:13.969Z,5.67
2019-02-04T13:50:57.468Z,7.67
2019-02-04T13:53:47.924Z,4.23
2019-02-04T13:56:38.291Z,4.93
2019-02-04T13:59:21.365Z,6.17
2019-02-04T14:02:13.509Z,6.23
2019-02-04T14:05:16.400Z,5.13
2019-02-04T14:07:59.230Z,4.43
2019-02-04T14:10:49.564Z,4.60
2019-02-04T14:16:36.755Z,4.97
2019-02-04T14:19:27.287Z,5.33
2019-02-04T14:22:10.505Z,5.90
2019-02-04T14:25:00.850Z,5.67
2019-02-04T14:27:43.737Z,6.63
2019-02-04T14:33:58.183Z,5.13
2019-02-04T14:37:00.896Z,3.80
2019-02-04T14:39:51.269Z,6.90
2019-02-04T14:42:34.333Z,4.97
2019-02-04T14:45:45.062Z,5.47
2019-02-04T14:48:49.963Z,4.87
2019-02-04T14:52:20.762Z,5.00
2019-02-04T14:55:32.205Z,4.47
2019-02-04T14:59:00.634Z,5.07
2019-02-04T15:02:29.058Z,4.00
2019-02-04T15:05:16.120Z,4.67
2019-02-04T15:08:18.507Z,4.97
2019-02-04T15:11:40.954Z,4.60
2019-02-04T15:14:31.717Z,5.90
2019-02-04T15:17:53.940Z,6.57
2019-02-04T15:21:08.389Z,7.17
2019-02-04T15:24:36.841Z,5.13
2019-02-04T15:27:39.280Z,5.53
2019-02-04T15:30:52.534Z,4.67
2019-02-04T15:34:15.822Z,5.13
2019-02-04T15:38:05.866Z,4.67
2019-02-04T15:40:54.886Z,5.07
2019-02-04T15:44:23.318Z,4.53
2019-02-04T15:47:11.477Z,4.33
2019-02-04T15:50:39.896Z,3.83
2019-02-04T15:53:22.582Z,4.30
2019-02-04T15:56:12.963Z,4.10
2019-02-04T15:58:56.102Z,4.63
2019-02-04T16:01:46.630Z,4.43
2019-02-04T16:04:51.616Z,6.27
2019-02-04T16:07:42.015Z,4.73
2019-02-04T16:10:32.376Z,4.43
2019-02-04T16:13:15.858Z,6.37
2019-02-04T16:16:09.029Z,3.30
2019-02-04T16:18:51.865Z,4.40
2019-02-04T16:21:42.309Z,3.87
2019-02-04T16:24:32.755Z,4.03
2019-02-04T16:27:35.358Z,3.67
2019-02-04T16:30:25.787Z,3.63
2019-02-04T16:33:30.881Z,3.50
2019-02-04T16:36:21.278Z,4.00
2019-02-04T16:39:06.616Z,6.47
2019-02-04T16:41:49.252Z,3.17
2019-02-04T16:44:39.768Z,2.63
2019-02-04T16:47:23.236Z,2.83
2019-02-04T16:51:10.955Z,2.37
2019-02-04T16:54:02.658Z,2.50
2019-02-04T16:56:53.120Z,2.67
2019-02-04T16:59:36.352Z,3.20
2019-02-04T17:02:26.786Z,3.07
2019-02-04T17:05:10.121Z,2.40
2019-02-04T17:08:19.443Z,3.10
2019-02-04T17:11:02.729Z,2.30
2019-02-04T17:13:53.121Z,3.27
2019-02-04T17:16:36.823Z,3.50
2019-02-04T17:19:47.647Z,3.50
2019-02-04T17:22:52.982Z,4.13
2019-02-04T17:25:43.882Z,2.23
2019-02-04T17:28:27.713Z,3.10
2019-02-04T17:31:18.146Z,4.37
2019-02-04T17:34:25.017Z,4.30
2019-02-04T17:37:15.424Z,2.60
2019-02-04T17:39:58.386Z,2.43
2019-02-04T17:42:51.480Z,3.40
2019-02-04T17:45:54.410Z,3.60
2019-02-04T17:48:44.826Z,2.60
2019-02-04T17:51:31.829Z,3.23
2019-02-04T17:54:20.817Z,3.03
2019-02-04T17:57:06.009Z,2.83
2019-02-04T17:59:56.326Z,4.00
2019-02-04T18:02:39.310Z,2.30
2019-02-04T18:05:29.701Z,2.43
2019-02-04T18:08:12.931Z,3.37
2019-02-04T18:14:27.185Z,2.97
2019-02-04T18:17:36.568Z,3.50
2019-02-04T18:20:19.796Z,2.73
2019-02-04T18:23:11.305Z,2.17
2019-02-04T18:26:15.064Z,3.17
2019-02-04T18:32:12.003Z,3.13
2019-02-04T18:35:02.462Z,2.83
2019-02-04T18:37:45.352Z,1.57
2019-02-04T18:40:35.743Z,2.50
2019-02-04T18:43:18.757Z,2.23
2019-02-04T18:46:09.202Z,1.60
2019-02-04T18:49:13.518Z,1.83
2019-02-04T18:52:04.046Z,1.47
2019-02-04T18:55:10.277Z,2.53
2019-02-04T18:58:11.370Z,2.10
2019-02-04T19:01:01.796Z,2.83
2019-02-04T19:03:45.202Z,1.77
2019-02-04T19:06:47.149Z,1.80
2019-02-04T19:09:40.331Z,2.83
2019-02-04T19:12:30.717Z,3.07
2019-02-04T19:15:14.934Z,2.77
2019-02-04T19:18:09.882Z,1.50
2019-02-04T19:20:41.277Z,1.93
2019-02-04T19:23:31.718Z,2.53
2019-02-04T19:26:43.700Z,2.57
2019-02-04T19:29:27.161Z,2.70
2019-02-04T19:32:17.557Z,2.10
2019-02-04T19:35:00.905Z,2.73
2019-02-04T19:37:35.266Z,3.77
2019-02-04T19:40:25.678Z,5.00
2019-02-04T19:43:15.501Z,2.47
2019-02-04T19:45:58.815Z,2.90
2019-02-04T19:48:49.264Z,3.40
2019-02-04T19:51:32.363Z,2.20
2019-02-04T19:54:22.832Z,3.67
2019-02-04T19:57:06.649Z,3.77
2019-02-04T20:00:11.843Z,2.53
2019-02-04T20:03:02.257Z,4.07
2019-02-04T20:05:45.257Z,2.63
2019-02-04T20:08:35.671Z,3.03
2019-02-04T20:11:46.798Z,2.77
2019-02-04T20:14:51.653Z,3.40
2019-02-04T20:17:42.070Z,4.33
2019-02-04T20:20:25.235Z,3.50
2019-02-04T20:23:18.080Z,3.60
2019-02-04T20:26:21.204Z,4.17
2019-02-04T20:29:11.602Z,3.23
2019-02-04T20:31:54.390Z,6.00
2019-02-04T20:34:44.808Z,4.03
2019-02-04T20:37:49.431Z,3.20
2019-02-04T20:40:40.000Z,3.87
2019-02-04T20:43:22.543Z,4.60
2019-02-04T20:46:13.441Z,5.50
2019-02-04T20:48:56.825Z,3.37
2019-02-04T20:51:47.333Z,5.10
2019-02-04T20:54:30.087Z,4.90
2019-02-04T20:57:20.538Z,6.30
2019-02-04T21:00:04.095Z,5.57
2019-02-04T21:02:54.779Z,3.10
2019-02-04T21:05:37.767Z,3.90
2019-02-04T21:08:28.264Z,4.23
2019-02-04T21:11:11.690Z,4.80
2019-02-04T21:14:02.925Z,3.97
2019-02-04T21:17:07.118Z,5.23
2019-02-04T21:19:57.479Z,4.40
2019-02-04T21:22:40.145Z,5.00
2019-02-04T21:25:30.510Z,3.93
2019-02-04T21:28:13.187Z,5.00
2019-02-04T21:31:03.548Z,3.30
2019-02-04T21:33:47.042Z,6.93
2019-02-04T21:36:37.419Z,5.97
2019-02-04T21:39:20.970Z,4.60
2019-02-04T21:42:11.326Z,4.70
2019-02-04T21:44:54.099Z,5.17
2019-02-04T21:47:44.748Z,4.53
2019-02-04T21:50:28.221Z,5.70
2019-02-04T21:53:18.606Z,4.33
2019-02-04T21:56:21.658Z,4.30
2019-02-04T21:59:32.369Z,4.07
2019-02-04T22:02:15.710Z,4.77
2019-02-04T22:05:08.317Z,4.30
2019-02-04T22:07:51.074Z,5.40
2019-02-04T22:10:35.037Z,4.23
2019-02-04T22:13:25.778Z,3.70
2019-02-04T22:16:09.174Z,3.70
2019-02-04T22:18:59.541Z,5.50
2019-02-04T22:21:42.331Z,5.63
2019-02-04T22:24:32.773Z,4.80
2019-02-04T22:27:15.735Z,4.43
2019-02-04T22:33:54.743Z,6.67
2019-02-04T22:36:45.499Z,5.77
2019-02-04T22:39:49.957Z,5.40
2019-02-04T22:42:40.292Z,8.57
2019-02-04T22:45:43.559Z,6.37
2019-02-04T22:48:33.927Z,4.60
2019-02-04T22:51:17.185Z,4.80
2019-02-04T22:54:07.543Z,5.77
2019-02-04T22:57:10.568Z,6.50
2019-02-04T23:00:00.913Z,5.73
2019-02-04T23:02:43.972Z,4.10
2019-02-04T23:05:34.366Z,4.33
2019-02-04T23:08:17.333Z,4.57
2019-02-04T23:11:00.136Z,5.73
2019-02-04T23:13:50.512Z,6.27
2019-02-04T23:16:33.315Z,7.27
2019-02-04T23:19:23.668Z,5.70
2019-02-04T23:22:06.522Z,5.67
2019-02-04T23:24:56.908Z,5.23
2019-02-04T23:27:40.432Z,5.93
2019-02-04T23:30:30.794Z,7.00
2019-02-04T23:33:13.890Z,6.57
2019-02-04T23:36:15.616Z,6.23
2019-02-04T23:42:56.026Z,7.00
2019-02-04T23:45:46.428Z,7.27
2019-02-04T23:48:36.797Z,5.77
2019-02-04T23:51:19.679Z,5.20
2019-02-04T23:54:10.109Z,7.23
2019-02-04T23:56:52.707Z,4.93
2019-02-04T23:59:43.084Z,5.50
